sensor_id;sensor_type;location;lat;lon;timestamp;P1;durP1;ratioP1;P2;durP2;ratioP2
82869;SDS011;72645;47.136;15.420;2024-03-22T00:00:43;2.70;;;1.40;;
82869;SDS011;72645;47.136;15.420;2024-03-22T00:03:14;4.00;;;1.70;;
82869;SDS011;72645;47.136;15.420;2024-03-22T00:05:46;3.00;;;1.90;;
82869;SDS011;72645;47.136;15.420;2024-03-22T00:08:17;3.50;;;1.70;;
82869;SDS011;72645;47.136;15.420;2024-03-22T00:10:47;3.70;;;1.90;;
82869;SDS011;72645;47.136;15.420;2024-03-22T00:13:18;3.00;;;1.40;;
82869;SDS011;72645;47.136;15.420;2024-03-22T00:15:48;4.70;;;2.00;;
82869;SDS011;72645;47.136;15.420;2024-03-22T00:18:19;3.90;;;2.20;;
82869;SDS011;72645;47.136;15.420;2024-03-22T00:20:49;3.00;;;1.80;;
82869;SDS011;72645;47.136;15.420;2024-03-22T00:23:19;2.70;;;1.70;;
82869;SDS011;72645;47.136;15.420;2024-03-22T00:25:50;4.40;;;1.90;;
82869;SDS011;72645;47.136;15.420;2024-03-22T00:28:20;3.20;;;1.70;;
82869;SDS011;72645;47.136;15.420;2024-03-22T00:30:51;5.90;;;1.80;;
82869;SDS011;72645;47.136;15.420;2024-03-22T00:33:21;3.00;;;1.20;;
82869;SDS011;72645;47.136;15.420;2024-03-22T00:35:51;3.30;;;2.00;;
82869;SDS011;72645;47.136;15.420;2024-03-22T00:38:22;3.80;;;1.90;;
82869;SDS011;72645;47.136;15.420;2024-03-22T00:40:53;2.90;;;1.60;;
82869;SDS011;72645;47.136;15.420;2024-03-22T00:43:23;3.30;;;1.90;;
82869;SDS011;72645;47.136;15.420;2024-03-22T00:45:53;3.90;;;2.10;;
82869;SDS011;72645;47.136;15.420;2024-03-22T00:48:24;3.10;;;2.10;;
82869;SDS011;72645;47.136;15.420;2024-03-22T00:50:54;4.10;;;1.80;;
82869;SDS011;72645;47.136;15.420;2024-03-22T00:53:25;4.20;;;2.50;;
82869;SDS011;72645;47.136;15.420;2024-03-22T00:55:56;4.30;;;2.00;;
82869;SDS011;72645;47.136;15.420;2024-03-22T00:58:27;3.10;;;2.60;;
82869;SDS011;72645;47.136;15.420;2024-03-22T01:00:58;3.50;;;2.20;;
82869;SDS011;72645;47.136;15.420;2024-03-22T01:03:28;3.10;;;2.20;;
82869;SDS011;72645;47.136;15.420;2024-03-22T01:05:59;2.30;;;1.80;;
82869;SDS011;72645;47.136;15.420;2024-03-22T01:08:29;5.00;;;2.50;;
82869;SDS011;72645;47.136;15.420;2024-03-22T01:11:00;2.90;;;1.70;;
82869;SDS011;72645;47.136;15.420;2024-03-22T01:13:30;4.10;;;2.00;;
82869;SDS011;72645;47.136;15.420;2024-03-22T01:16:01;3.60;;;2.60;;
82869;SDS011;72645;47.136;15.420;2024-03-22T01:18:32;3.30;;;1.70;;
82869;SDS011;72645;47.136;15.420;2024-03-22T01:21:02;4.20;;;2.00;;
82869;SDS011;72645;47.136;15.420;2024-03-22T01:23:34;7.00;;;3.20;;
82869;SDS011;72645;47.136;15.420;2024-03-22T01:26:04;4.50;;;2.40;;
82869;SDS011;72645;47.136;15.420;2024-03-22T01:28:35;3.60;;;2.50;;
82869;SDS011;72645;47.136;15.420;2024-03-22T01:31:05;4.50;;;2.20;;
82869;SDS011;72645;47.136;15.420;2024-03-22T01:33:36;4.10;;;2.20;;
82869;SDS011;72645;47.136;15.420;2024-03-22T01:36:06;4.70;;;2.30;;
82869;SDS011;72645;47.136;15.420;2024-03-22T01:38:37;4.00;;;2.40;;
82869;SDS011;72645;47.136;15.420;2024-03-22T01:41:07;5.60;;;2.50;;
82869;SDS011;72645;47.136;15.420;2024-03-22T01:43:38;3.10;;;2.00;;
82869;SDS011;72645;47.136;15.420;2024-03-22T01:46:08;5.20;;;2.20;;
82869;SDS011;72645;47.136;15.420;2024-03-22T01:48:38;5.20;;;2.40;;
82869;SDS011;72645;47.136;15.420;2024-03-22T01:51:09;3.70;;;2.40;;
82869;SDS011;72645;47.136;15.420;2024-03-22T01:53:41;6.30;;;3.20;;
82869;SDS011;72645;47.136;15.420;2024-03-22T01:56:11;5.30;;;2.30;;
82869;SDS011;72645;47.136;15.420;2024-03-22T01:58:42;3.90;;;2.90;;
82869;SDS011;72645;47.136;15.420;2024-03-22T02:01:13;6.50;;;2.10;;
82869;SDS011;72645;47.136;15.420;2024-03-22T02:03:43;4.40;;;2.90;;
82869;SDS011;72645;47.136;15.420;2024-03-22T02:06:14;4.00;;;2.30;;
82869;SDS011;72645;47.136;15.420;2024-03-22T02:08:44;3.80;;;2.20;;
82869;SDS011;72645;47.136;15.420;2024-03-22T02:11:15;4.60;;;2.70;;
82869;SDS011;72645;47.136;15.420;2024-03-22T02:13:46;3.80;;;2.50;;
82869;SDS011;72645;47.136;15.420;2024-03-22T02:16:16;3.10;;;1.90;;
82869;SDS011;72645;47.136;15.420;2024-03-22T02:18:47;3.30;;;2.50;;
82869;SDS011;72645;47.136;15.420;2024-03-22T02:21:18;3.30;;;2.40;;
82869;SDS011;72645;47.136;15.420;2024-03-22T02:23:48;4.90;;;2.20;;
82869;SDS011;72645;47.136;15.420;2024-03-22T02:26:19;4.40;;;3.00;;
82869;SDS011;72645;47.136;15.420;2024-03-22T02:28:49;4.70;;;2.20;;
82869;SDS011;72645;47.136;15.420;2024-03-22T02:31:19;3.70;;;2.30;;
82869;SDS011;72645;47.136;15.420;2024-03-22T02:33:50;4.00;;;2.40;;
82869;SDS011;72645;47.136;15.420;2024-03-22T02:36:20;3.80;;;2.00;;
82869;SDS011;72645;47.136;15.420;2024-03-22T02:38:51;4.80;;;2.80;;
82869;SDS011;72645;47.136;15.420;2024-03-22T02:41:21;6.10;;;2.50;;
82869;SDS011;72645;47.136;15.420;2024-03-22T02:43:52;3.70;;;1.90;;
82869;SDS011;72645;47.136;15.420;2024-03-22T02:46:22;4.70;;;2.60;;
82869;SDS011;72645;47.136;15.420;2024-03-22T02:48:53;7.20;;;3.40;;
82869;SDS011;72645;47.136;15.420;2024-03-22T02:51:23;3.50;;;2.30;;
82869;SDS011;72645;47.136;15.420;2024-03-22T02:53:54;3.10;;;1.80;;
82869;SDS011;72645;47.136;15.420;2024-03-22T02:56:24;4.00;;;2.10;;
82869;SDS011;72645;47.136;15.420;2024-03-22T02:58:54;4.80;;;2.40;;
82869;SDS011;72645;47.136;15.420;2024-03-22T03:01:25;4.20;;;2.20;;
82869;SDS011;72645;47.136;15.420;2024-03-22T03:03:55;4.50;;;2.10;;
82869;SDS011;72645;47.136;15.420;2024-03-22T03:06:25;4.30;;;2.50;;
82869;SDS011;72645;47.136;15.420;2024-03-22T03:08:56;3.70;;;2.30;;
82869;SDS011;72645;47.136;15.420;2024-03-22T03:11:26;3.30;;;2.60;;
82869;SDS011;72645;47.136;15.420;2024-03-22T03:13:57;4.00;;;2.10;;
82869;SDS011;72645;47.136;15.420;2024-03-22T03:16:28;4.40;;;2.00;;
82869;SDS011;72645;47.136;15.420;2024-03-22T03:18:58;6.30;;;2.70;;
82869;SDS011;72645;47.136;15.420;2024-03-22T03:21:29;5.60;;;2.50;;
82869;SDS011;72645;47.136;15.420;2024-03-22T03:24:00;3.50;;;2.10;;
82869;SDS011;72645;47.136;15.420;2024-03-22T03:26:30;5.00;;;2.10;;
82869;SDS011;72645;47.136;15.420;2024-03-22T03:29:00;3.80;;;2.10;;
82869;SDS011;72645;47.136;15.420;2024-03-22T03:31:31;3.70;;;2.30;;
82869;SDS011;72645;47.136;15.420;2024-03-22T03:34:01;4.10;;;2.60;;
82869;SDS011;72645;47.136;15.420;2024-03-22T03:36:32;4.10;;;2.20;;
82869;SDS011;72645;47.136;15.420;2024-03-22T03:39:02;3.40;;;2.50;;
82869;SDS011;72645;47.136;15.420;2024-03-22T03:41:33;3.40;;;2.20;;
82869;SDS011;72645;47.136;15.420;2024-03-22T03:44:04;3.50;;;1.80;;
82869;SDS011;72645;47.136;15.420;2024-03-22T03:46:34;3.10;;;2.70;;
82869;SDS011;72645;47.136;15.420;2024-03-22T03:49:05;3.80;;;2.30;;
82869;SDS011;72645;47.136;15.420;2024-03-22T03:51:35;5.00;;;1.80;;
82869;SDS011;72645;47.136;15.420;2024-03-22T03:54:06;5.30;;;2.30;;
82869;SDS011;72645;47.136;15.420;2024-03-22T03:56:36;4.60;;;3.00;;
82869;SDS011;72645;47.136;15.420;2024-03-22T03:59:06;3.70;;;2.00;;
82869;SDS011;72645;47.136;15.420;2024-03-22T04:01:37;4.20;;;2.00;;
82869;SDS011;72645;47.136;15.420;2024-03-22T04:04:07;3.40;;;2.50;;
82869;SDS011;72645;47.136;15.420;2024-03-22T04:06:38;4.20;;;2.40;;
82869;SDS011;72645;47.136;15.420;2024-03-22T04:09:08;4.20;;;2.50;;
82869;SDS011;72645;47.136;15.420;2024-03-22T04:11:39;4.40;;;2.30;;
82869;SDS011;72645;47.136;15.420;2024-03-22T04:14:09;4.20;;;2.70;;
82869;SDS011;72645;47.136;15.420;2024-03-22T04:16:39;5.10;;;3.30;;
82869;SDS011;72645;47.136;15.420;2024-03-22T04:19:10;4.40;;;2.40;;
82869;SDS011;72645;47.136;15.420;2024-03-22T04:21:40;5.10;;;2.60;;
82869;SDS011;72645;47.136;15.420;2024-03-22T04:24:11;4.20;;;2.50;;
82869;SDS011;72645;47.136;15.420;2024-03-22T04:26:41;4.80;;;2.60;;
82869;SDS011;72645;47.136;15.420;2024-03-22T04:29:12;4.40;;;2.50;;
82869;SDS011;72645;47.136;15.420;2024-03-22T04:31:42;4.80;;;2.60;;
82869;SDS011;72645;47.136;15.420;2024-03-22T04:34:12;5.90;;;2.70;;
82869;SDS011;72645;47.136;15.420;2024-03-22T04:36:43;3.80;;;2.50;;
82869;SDS011;72645;47.136;15.420;2024-03-22T04:39:13;4.80;;;3.00;;
82869;SDS011;72645;47.136;15.420;2024-03-22T04:41:44;4.80;;;2.90;;
82869;SDS011;72645;47.136;15.420;2024-03-22T04:44:14;5.40;;;2.90;;
82869;SDS011;72645;47.136;15.420;2024-03-22T04:46:45;4.00;;;2.90;;
82869;SDS011;72645;47.136;15.420;2024-03-22T04:49:15;6.30;;;3.10;;
82869;SDS011;72645;47.136;15.420;2024-03-22T04:51:46;6.00;;;3.10;;
82869;SDS011;72645;47.136;15.420;2024-03-22T04:54:16;4.20;;;3.00;;
82869;SDS011;72645;47.136;15.420;2024-03-22T04:56:47;4.80;;;2.80;;
82869;SDS011;72645;47.136;15.420;2024-03-22T04:59:17;6.40;;;3.70;;
82869;SDS011;72645;47.136;15.420;2024-03-22T05:01:48;5.00;;;3.30;;
82869;SDS011;72645;47.136;15.420;2024-03-22T05:04:18;5.00;;;3.20;;
82869;SDS011;72645;47.136;15.420;2024-03-22T05:06:48;5.80;;;3.20;;
82869;SDS011;72645;47.136;15.420;2024-03-22T05:09:19;5.10;;;2.60;;
82869;SDS011;72645;47.136;15.420;2024-03-22T05:11:49;5.40;;;3.60;;
82869;SDS011;72645;47.136;15.420;2024-03-22T05:14:20;5.20;;;3.00;;
82869;SDS011;72645;47.136;15.420;2024-03-22T05:16:50;6.90;;;2.80;;
82869;SDS011;72645;47.136;15.420;2024-03-22T05:19:20;6.80;;;2.90;;
82869;SDS011;72645;47.136;15.420;2024-03-22T05:21:51;4.80;;;3.60;;
82869;SDS011;72645;47.136;15.420;2024-03-22T05:24:22;5.20;;;2.70;;
82869;SDS011;72645;47.136;15.420;2024-03-22T05:26:52;5.20;;;2.70;;
82869;SDS011;72645;47.136;15.420;2024-03-22T05:29:23;6.90;;;3.50;;
82869;SDS011;72645;47.136;15.420;2024-03-22T05:31:53;4.90;;;3.30;;
82869;SDS011;72645;47.136;15.420;2024-03-22T05:34:24;4.60;;;3.20;;
82869;SDS011;72645;47.136;15.420;2024-03-22T05:36:57;5.50;;;3.30;;
82869;SDS011;72645;47.136;15.420;2024-03-22T05:39:28;6.10;;;3.20;;
82869;SDS011;72645;47.136;15.420;2024-03-22T05:41:58;4.90;;;3.20;;
82869;SDS011;72645;47.136;15.420;2024-03-22T05:44:29;4.80;;;3.10;;
82869;SDS011;72645;47.136;15.420;2024-03-22T05:46:59;4.70;;;3.50;;
82869;SDS011;72645;47.136;15.420;2024-03-22T05:49:30;5.10;;;2.80;;
82869;SDS011;72645;47.136;15.420;2024-03-22T05:52:00;5.30;;;3.00;;
82869;SDS011;72645;47.136;15.420;2024-03-22T05:54:31;6.80;;;2.90;;
82869;SDS011;72645;47.136;15.420;2024-03-22T05:57:01;7.40;;;3.80;;
82869;SDS011;72645;47.136;15.420;2024-03-22T05:59:32;7.40;;;3.70;;
82869;SDS011;72645;47.136;15.420;2024-03-22T06:02:03;7.70;;;3.20;;
82869;SDS011;72645;47.136;15.420;2024-03-22T06:04:33;4.60;;;3.40;;
82869;SDS011;72645;47.136;15.420;2024-03-22T06:07:04;6.80;;;3.70;;
82869;SDS011;72645;47.136;15.420;2024-03-22T06:09:34;6.50;;;2.90;;
82869;SDS011;72645;47.136;15.420;2024-03-22T06:12:13;4.60;;;3.30;;
82869;SDS011;72645;47.136;15.420;2024-03-22T06:14:44;5.40;;;3.00;;
82869;SDS011;72645;47.136;15.420;2024-03-22T06:17:16;7.10;;;4.00;;
82869;SDS011;72645;47.136;15.420;2024-03-22T06:19:46;5.10;;;2.90;;
82869;SDS011;72645;47.136;15.420;2024-03-22T06:22:17;6.90;;;3.40;;
82869;SDS011;72645;47.136;15.420;2024-03-22T06:24:47;6.70;;;3.70;;
82869;SDS011;72645;47.136;15.420;2024-03-22T06:27:18;6.80;;;3.90;;
82869;SDS011;72645;47.136;15.420;2024-03-22T06:29:48;7.60;;;3.40;;
82869;SDS011;72645;47.136;15.420;2024-03-22T06:32:19;7.20;;;4.30;;
82869;SDS011;72645;47.136;15.420;2024-03-22T06:34:49;9.10;;;3.10;;
82869;SDS011;72645;47.136;15.420;2024-03-22T06:37:19;6.00;;;2.80;;
82869;SDS011;72645;47.136;15.420;2024-03-22T06:39:50;7.90;;;4.40;;
82869;SDS011;72645;47.136;15.420;2024-03-22T06:42:21;7.00;;;2.60;;
82869;SDS011;72645;47.136;15.420;2024-03-22T06:44:51;5.70;;;3.50;;
82869;SDS011;72645;47.136;15.420;2024-03-22T06:47:22;10.70;;;4.00;;
82869;SDS011;72645;47.136;15.420;2024-03-22T06:49:52;5.90;;;3.70;;
82869;SDS011;72645;47.136;15.420;2024-03-22T06:52:22;5.30;;;3.00;;
82869;SDS011;72645;47.136;15.420;2024-03-22T06:54:53;6.40;;;4.30;;
82869;SDS011;72645;47.136;15.420;2024-03-22T06:57:23;6.80;;;4.60;;
82869;SDS011;72645;47.136;15.420;2024-03-22T06:59:54;7.80;;;3.50;;
82869;SDS011;72645;47.136;15.420;2024-03-22T07:02:25;6.90;;;4.10;;
82869;SDS011;72645;47.136;15.420;2024-03-22T07:04:55;6.40;;;3.20;;
82869;SDS011;72645;47.136;15.420;2024-03-22T07:07:26;7.30;;;3.60;;
82869;SDS011;72645;47.136;15.420;2024-03-22T07:09:57;7.70;;;3.80;;
82869;SDS011;72645;47.136;15.420;2024-03-22T07:12:28;8.50;;;3.70;;
82869;SDS011;72645;47.136;15.420;2024-03-22T07:14:58;7.20;;;3.50;;
82869;SDS011;72645;47.136;15.420;2024-03-22T07:17:30;7.30;;;3.60;;
82869;SDS011;72645;47.136;15.420;2024-03-22T07:20:00;6.50;;;4.00;;
82869;SDS011;72645;47.136;15.420;2024-03-22T07:22:31;5.30;;;3.50;;
82869;SDS011;72645;47.136;15.420;2024-03-22T07:25:02;7.20;;;3.70;;
82869;SDS011;72645;47.136;15.420;2024-03-22T07:27:33;7.00;;;3.50;;
82869;SDS011;72645;47.136;15.420;2024-03-22T07:30:04;6.70;;;3.40;;
82869;SDS011;72645;47.136;15.420;2024-03-22T07:32:35;7.00;;;3.00;;
82869;SDS011;72645;47.136;15.420;2024-03-22T07:35:06;9.30;;;3.50;;
82869;SDS011;72645;47.136;15.420;2024-03-22T07:37:37;5.60;;;3.00;;
82869;SDS011;72645;47.136;15.420;2024-03-22T07:40:08;5.80;;;2.80;;
82869;SDS011;72645;47.136;15.420;2024-03-22T07:42:39;6.00;;;3.10;;
82869;SDS011;72645;47.136;15.420;2024-03-22T07:45:09;5.80;;;2.90;;
82869;SDS011;72645;47.136;15.420;2024-03-22T07:47:40;5.30;;;2.80;;
82869;SDS011;72645;47.136;15.420;2024-03-22T07:50:11;6.20;;;2.40;;
82869;SDS011;72645;47.136;15.420;2024-03-22T07:52:41;6.30;;;2.60;;
82869;SDS011;72645;47.136;15.420;2024-03-22T07:55:12;5.60;;;2.70;;
82869;SDS011;72645;47.136;15.420;2024-03-22T07:57:42;6.30;;;2.70;;
82869;SDS011;72645;47.136;15.420;2024-03-22T08:00:13;5.40;;;2.50;;
82869;SDS011;72645;47.136;15.420;2024-03-22T08:02:44;3.90;;;2.50;;
82869;SDS011;72645;47.136;15.420;2024-03-22T08:05:15;4.50;;;2.60;;
82869;SDS011;72645;47.136;15.420;2024-03-22T08:07:47;4.30;;;2.40;;
82869;SDS011;72645;47.136;15.420;2024-03-22T08:10:17;4.00;;;1.70;;
82869;SDS011;72645;47.136;15.420;2024-03-22T08:12:47;4.00;;;1.90;;
82869;SDS011;72645;47.136;15.420;2024-03-22T08:15:18;4.70;;;2.40;;
82869;SDS011;72645;47.136;15.420;2024-03-22T08:17:48;3.20;;;2.00;;
82869;SDS011;72645;47.136;15.420;2024-03-22T08:20:18;3.90;;;2.40;;
82869;SDS011;72645;47.136;15.420;2024-03-22T08:22:49;5.50;;;2.40;;
82869;SDS011;72645;47.136;15.420;2024-03-22T08:25:19;5.20;;;2.20;;
82869;SDS011;72645;47.136;15.420;2024-03-22T08:27:52;6.40;;;2.10;;
82869;SDS011;72645;47.136;15.420;2024-03-22T08:30:31;3.50;;;2.00;;
82869;SDS011;72645;47.136;15.420;2024-03-22T08:33:02;4.20;;;2.50;;
82869;SDS011;72645;47.136;15.420;2024-03-22T08:35:32;3.40;;;1.70;;
82869;SDS011;72645;47.136;15.420;2024-03-22T08:38:03;7.10;;;2.70;;
82869;SDS011;72645;47.136;15.420;2024-03-22T08:40:37;6.30;;;1.90;;
82869;SDS011;72645;47.136;15.420;2024-03-22T08:43:08;3.60;;;2.00;;
82869;SDS011;72645;47.136;15.420;2024-03-22T08:45:38;5.50;;;2.20;;
82869;SDS011;72645;47.136;15.420;2024-03-22T08:48:09;3.10;;;2.30;;
82869;SDS011;72645;47.136;15.420;2024-03-22T08:50:39;2.60;;;1.20;;
82869;SDS011;72645;47.136;15.420;2024-03-22T08:53:12;4.20;;;1.80;;
82869;SDS011;72645;47.136;15.420;2024-03-22T08:55:46;4.10;;;1.90;;
82869;SDS011;72645;47.136;15.420;2024-03-22T08:58:17;5.40;;;2.30;;
82869;SDS011;72645;47.136;15.420;2024-03-22T09:00:48;4.50;;;1.80;;
82869;SDS011;72645;47.136;15.420;2024-03-22T09:03:22;5.90;;;2.20;;
82869;SDS011;72645;47.136;15.420;2024-03-22T09:05:53;5.70;;;2.10;;
82869;SDS011;72645;47.136;15.420;2024-03-22T09:08:35;3.20;;;2.20;;
82869;SDS011;72645;47.136;15.420;2024-03-22T09:11:05;3.20;;;1.70;;
82869;SDS011;72645;47.136;15.420;2024-03-22T09:13:36;3.20;;;2.00;;
82869;SDS011;72645;47.136;15.420;2024-03-22T09:16:06;3.50;;;1.70;;
82869;SDS011;72645;47.136;15.420;2024-03-22T09:18:37;3.90;;;1.50;;
82869;SDS011;72645;47.136;15.420;2024-03-22T09:21:07;3.20;;;1.60;;
82869;SDS011;72645;47.136;15.420;2024-03-22T09:23:38;4.40;;;1.60;;
82869;SDS011;72645;47.136;15.420;2024-03-22T09:26:08;5.80;;;1.50;;
82869;SDS011;72645;47.136;15.420;2024-03-22T09:28:39;4.00;;;1.60;;
82869;SDS011;72645;47.136;15.420;2024-03-22T09:31:10;2.90;;;1.50;;
82869;SDS011;72645;47.136;15.420;2024-03-22T09:33:41;2.80;;;1.30;;
82869;SDS011;72645;47.136;15.420;2024-03-22T09:36:11;2.30;;;1.20;;
82869;SDS011;72645;47.136;15.420;2024-03-22T09:38:42;6.90;;;1.90;;
82869;SDS011;72645;47.136;15.420;2024-03-22T09:41:12;5.40;;;1.70;;
82869;SDS011;72645;47.136;15.420;2024-03-22T09:43:49;4.80;;;1.80;;
82869;SDS011;72645;47.136;15.420;2024-03-22T09:46:23;3.20;;;1.40;;
82869;SDS011;72645;47.136;15.420;2024-03-22T09:48:54;3.50;;;1.60;;
82869;SDS011;72645;47.136;15.420;2024-03-22T09:51:25;3.30;;;1.80;;
82869;SDS011;72645;47.136;15.420;2024-03-22T09:53:57;4.20;;;1.50;;
82869;SDS011;72645;47.136;15.420;2024-03-22T09:56:28;3.20;;;2.00;;
82869;SDS011;72645;47.136;15.420;2024-03-22T09:59:00;4.50;;;1.50;;
82869;SDS011;72645;47.136;15.420;2024-03-22T10:01:31;3.60;;;1.70;;
82869;SDS011;72645;47.136;15.420;2024-03-22T10:04:03;3.60;;;1.80;;
82869;SDS011;72645;47.136;15.420;2024-03-22T10:06:33;3.00;;;1.50;;
82869;SDS011;72645;47.136;15.420;2024-03-22T10:09:04;2.10;;;1.30;;
82869;SDS011;72645;47.136;15.420;2024-03-22T10:11:36;2.50;;;1.20;;
82869;SDS011;72645;47.136;15.420;2024-03-22T10:14:07;2.60;;;1.50;;
82869;SDS011;72645;47.136;15.420;2024-03-22T10:16:45;2.30;;;1.90;;
82869;SDS011;72645;47.136;15.420;2024-03-22T10:19:15;3.70;;;1.40;;
82869;SDS011;72645;47.136;15.420;2024-03-22T10:21:46;2.10;;;1.10;;
82869;SDS011;72645;47.136;15.420;2024-03-22T10:24:27;2.50;;;1.10;;
82869;SDS011;72645;47.136;15.420;2024-03-22T10:26:58;3.20;;;1.60;;
82869;SDS011;72645;47.136;15.420;2024-03-22T10:29:29;3.80;;;1.10;;
82869;SDS011;72645;47.136;15.420;2024-03-22T10:32:00;4.80;;;1.70;;
82869;SDS011;72645;47.136;15.420;2024-03-22T10:34:31;2.60;;;1.00;;
82869;SDS011;72645;47.136;15.420;2024-03-22T10:37:04;2.50;;;0.70;;
82869;SDS011;72645;47.136;15.420;2024-03-22T10:39:36;3.70;;;1.20;;
82869;SDS011;72645;47.136;15.420;2024-03-22T10:42:08;1.90;;;0.90;;
82869;SDS011;72645;47.136;15.420;2024-03-22T10:44:40;3.40;;;1.30;;
82869;SDS011;72645;47.136;15.420;2024-03-22T10:47:10;1.80;;;1.40;;
82869;SDS011;72645;47.136;15.420;2024-03-22T10:49:43;3.60;;;1.10;;
82869;SDS011;72645;47.136;15.420;2024-03-22T10:52:20;2.30;;;0.80;;
82869;SDS011;72645;47.136;15.420;2024-03-22T10:54:51;2.00;;;0.80;;
82869;SDS011;72645;47.136;15.420;2024-03-22T10:57:22;3.80;;;1.10;;
82869;SDS011;72645;47.136;15.420;2024-03-22T10:59:55;1.90;;;0.70;;
82869;SDS011;72645;47.136;15.420;2024-03-22T11:02:27;1.60;;;0.60;;
82869;SDS011;72645;47.136;15.420;2024-03-22T11:04:58;2.80;;;0.80;;
82869;SDS011;72645;47.136;15.420;2024-03-22T11:07:29;1.90;;;0.80;;
82869;SDS011;72645;47.136;15.420;2024-03-22T11:10:01;2.40;;;0.80;;
82869;SDS011;72645;47.136;15.420;2024-03-22T11:12:34;1.90;;;0.80;;
82869;SDS011;72645;47.136;15.420;2024-03-22T11:15:08;1.50;;;0.70;;
82869;SDS011;72645;47.136;15.420;2024-03-22T11:17:39;1.90;;;0.70;;
82869;SDS011;72645;47.136;15.420;2024-03-22T11:20:11;2.00;;;0.60;;
82869;SDS011;72645;47.136;15.420;2024-03-22T11:22:41;1.20;;;0.50;;
82869;SDS011;72645;47.136;15.420;2024-03-22T11:25:12;1.50;;;0.90;;
82869;SDS011;72645;47.136;15.420;2024-03-22T11:27:43;1.10;;;0.60;;
82869;SDS011;72645;47.136;15.420;2024-03-22T11:30:14;2.70;;;0.70;;
82869;SDS011;72645;47.136;15.420;2024-03-22T11:32:45;1.90;;;0.80;;
82869;SDS011;72645;47.136;15.420;2024-03-22T11:35:16;1.70;;;0.80;;
82869;SDS011;72645;47.136;15.420;2024-03-22T11:37:47;1.00;;;0.70;;
82869;SDS011;72645;47.136;15.420;2024-03-22T11:40:18;2.50;;;0.80;;
82869;SDS011;72645;47.136;15.420;2024-03-22T11:42:49;1.50;;;0.70;;
82869;SDS011;72645;47.136;15.420;2024-03-22T11:45:20;1.10;;;0.60;;
82869;SDS011;72645;47.136;15.420;2024-03-22T11:47:52;2.10;;;0.90;;
82869;SDS011;72645;47.136;15.420;2024-03-22T11:50:23;1.90;;;1.30;;
82869;SDS011;72645;47.136;15.420;2024-03-22T11:52:53;2.20;;;0.70;;
82869;SDS011;72645;47.136;15.420;2024-03-22T11:55:26;1.70;;;0.50;;
82869;SDS011;72645;47.136;15.420;2024-03-22T11:57:58;1.80;;;0.60;;
82869;SDS011;72645;47.136;15.420;2024-03-22T12:00:28;1.80;;;0.60;;
82869;SDS011;72645;47.136;15.420;2024-03-22T12:03:04;2.10;;;0.40;;
82869;SDS011;72645;47.136;15.420;2024-03-22T12:05:35;1.90;;;0.60;;
82869;SDS011;72645;47.136;15.420;2024-03-22T12:08:06;2.50;;;1.20;;
82869;SDS011;72645;47.136;15.420;2024-03-22T12:10:36;2.30;;;0.70;;
82869;SDS011;72645;47.136;15.420;2024-03-22T12:13:07;2.80;;;1.00;;
82869;SDS011;72645;47.136;15.420;2024-03-22T12:15:37;1.50;;;0.70;;
82869;SDS011;72645;47.136;15.420;2024-03-22T12:18:08;1.30;;;0.70;;
82869;SDS011;72645;47.136;15.420;2024-03-22T12:20:38;1.60;;;0.90;;
82869;SDS011;72645;47.136;15.420;2024-03-22T12:23:12;1.60;;;0.70;;
82869;SDS011;72645;47.136;15.420;2024-03-22T12:25:43;1.30;;;0.60;;
82869;SDS011;72645;47.136;15.420;2024-03-22T12:28:13;1.60;;;0.80;;
82869;SDS011;72645;47.136;15.420;2024-03-22T12:30:44;1.20;;;0.50;;
82869;SDS011;72645;47.136;15.420;2024-03-22T12:33:15;1.70;;;0.90;;
82869;SDS011;72645;47.136;15.420;2024-03-22T12:35:45;2.60;;;0.80;;
82869;SDS011;72645;47.136;15.420;2024-03-22T12:38:16;0.90;;;0.60;;
82869;SDS011;72645;47.136;15.420;2024-03-22T12:40:46;2.40;;;0.70;;
82869;SDS011;72645;47.136;15.420;2024-03-22T12:43:17;1.50;;;0.50;;
82869;SDS011;72645;47.136;15.420;2024-03-22T12:45:48;1.70;;;1.10;;
82869;SDS011;72645;47.136;15.420;2024-03-22T12:48:19;1.80;;;1.20;;
82869;SDS011;72645;47.136;15.420;2024-03-22T12:50:49;1.70;;;0.70;;
82869;SDS011;72645;47.136;15.420;2024-03-22T12:53:20;3.50;;;0.60;;
82869;SDS011;72645;47.136;15.420;2024-03-22T12:55:51;1.00;;;0.80;;
82869;SDS011;72645;47.136;15.420;2024-03-22T12:58:21;1.60;;;0.70;;
82869;SDS011;72645;47.136;15.420;2024-03-22T13:00:52;1.90;;;0.80;;
82869;SDS011;72645;47.136;15.420;2024-03-22T13:03:22;1.50;;;0.60;;
82869;SDS011;72645;47.136;15.420;2024-03-22T13:05:53;1.20;;;0.90;;
82869;SDS011;72645;47.136;15.420;2024-03-22T13:08:23;1.50;;;0.40;;
82869;SDS011;72645;47.136;15.420;2024-03-22T13:10:54;1.60;;;0.70;;
82869;SDS011;72645;47.136;15.420;2024-03-22T13:13:24;4.10;;;0.80;;
82869;SDS011;72645;47.136;15.420;2024-03-22T13:15:56;2.70;;;0.60;;
82869;SDS011;72645;47.136;15.420;2024-03-22T13:18:26;3.20;;;0.70;;
82869;SDS011;72645;47.136;15.420;2024-03-22T13:20:57;1.90;;;0.70;;
82869;SDS011;72645;47.136;15.420;2024-03-22T13:23:27;2.10;;;0.90;;
82869;SDS011;72645;47.136;15.420;2024-03-22T13:26:03;2.80;;;0.60;;
82869;SDS011;72645;47.136;15.420;2024-03-22T13:28:34;4.30;;;0.90;;
82869;SDS011;72645;47.136;15.420;2024-03-22T13:31:06;4.00;;;1.20;;
82869;SDS011;72645;47.136;15.420;2024-03-22T13:33:36;1.20;;;0.80;;
82869;SDS011;72645;47.136;15.420;2024-03-22T13:36:07;4.30;;;0.70;;
82869;SDS011;72645;47.136;15.420;2024-03-22T13:38:37;4.90;;;1.00;;
82869;SDS011;72645;47.136;15.420;2024-03-22T13:41:08;1.40;;;0.80;;
82869;SDS011;72645;47.136;15.420;2024-03-22T13:43:38;1.00;;;0.50;;
82869;SDS011;72645;47.136;15.420;2024-03-22T13:46:11;3.40;;;0.80;;
82869;SDS011;72645;47.136;15.420;2024-03-22T13:48:44;1.60;;;1.10;;
82869;SDS011;72645;47.136;15.420;2024-03-22T13:51:15;1.80;;;1.30;;
82869;SDS011;72645;47.136;15.420;2024-03-22T13:53:46;1.30;;;0.70;;
82869;SDS011;72645;47.136;15.420;2024-03-22T13:56:16;1.80;;;0.80;;
82869;SDS011;72645;47.136;15.420;2024-03-22T13:58:46;1.30;;;0.70;;
82869;SDS011;72645;47.136;15.420;2024-03-22T14:01:17;6.30;;;1.30;;
82869;SDS011;72645;47.136;15.420;2024-03-22T14:03:47;3.70;;;0.60;;
82869;SDS011;72645;47.136;15.420;2024-03-22T14:06:18;2.70;;;1.00;;
82869;SDS011;72645;47.136;15.420;2024-03-22T14:08:49;3.40;;;0.80;;
82869;SDS011;72645;47.136;15.420;2024-03-22T14:11:22;4.70;;;1.20;;
82869;SDS011;72645;47.136;15.420;2024-03-22T14:13:52;1.60;;;0.90;;
82869;SDS011;72645;47.136;15.420;2024-03-22T14:16:23;2.80;;;1.20;;
82869;SDS011;72645;47.136;15.420;2024-03-22T14:18:53;2.40;;;0.90;;
82869;SDS011;72645;47.136;15.420;2024-03-22T14:21:24;2.40;;;1.40;;
82869;SDS011;72645;47.136;15.420;2024-03-22T14:23:54;1.30;;;0.80;;
82869;SDS011;72645;47.136;15.420;2024-03-22T14:26:25;1.40;;;0.70;;
82869;SDS011;72645;47.136;15.420;2024-03-22T14:28:55;5.90;;;1.60;;
82869;SDS011;72645;47.136;15.420;2024-03-22T14:31:26;3.60;;;1.00;;
82869;SDS011;72645;47.136;15.420;2024-03-22T14:33:56;2.00;;;0.70;;
82869;SDS011;72645;47.136;15.420;2024-03-22T14:36:27;1.40;;;0.60;;
82869;SDS011;72645;47.136;15.420;2024-03-22T14:38:57;2.10;;;1.40;;
82869;SDS011;72645;47.136;15.420;2024-03-22T14:41:29;1.80;;;0.80;;
82869;SDS011;72645;47.136;15.420;2024-03-22T14:43:59;1.70;;;0.80;;
82869;SDS011;72645;47.136;15.420;2024-03-22T14:46:30;2.00;;;0.90;;
82869;SDS011;72645;47.136;15.420;2024-03-22T14:49:01;2.10;;;0.60;;
82869;SDS011;72645;47.136;15.420;2024-03-22T14:51:32;2.50;;;1.00;;
82869;SDS011;72645;47.136;15.420;2024-03-22T14:54:02;2.80;;;0.90;;